Time;durP1;ratioP1;P1;durP2;ratioP2;P2;SDS_P1;SDS_P2;PMS_P1;PMS_P2;Temp;Humidity;BMP_temperature;BMP_pressure;BME280_temperature;BME280_humidity;BME280_pressure;Samples;Min_cycle;Max_cycle;Signal;HPM_P1;HPM_P2
2022/09/14 00:01:42;;;;;;;6.27;2.47;;;15.00;99.90;;;;;;4937788;28;20463;-78
2022/09/14 00:04:16;;;;;;;7.37;2.83;;;15.00;99.90;;;;;;4937616;29;20455;-79
2022/09/14 00:06:48;;;;;;;5.93;2.63;;;15.00;99.90;;;;;;4938487;29;20439;-79
2022/09/14 00:09:18;;;;;;;5.27;2.70;;;15.00;99.90;;;;;;4938220;29;20478;-79
2022/09/14 00:11:48;;;;;;;5.53;2.67;;;15.00;99.90;;;;;;4938055;29;20455;-78
2022/09/14 00:14:20;;;;;;;6.23;2.83;;;15.00;99.90;;;;;;4936733;29;20474;-79
2022/09/14 00:16:49;;;;;;;8.30;2.97;;;15.00;99.90;;;;;;4936573;29;20555;-79
2022/09/14 00:19:21;;;;;;;4.77;2.43;;;15.00;99.90;;;;;;4938056;28;20538;-79
2022/09/14 00:21:53;;;;;;;4.70;3.10;;;14.90;99.90;;;;;;4937106;29;21065;-78
2022/09/14 00:24:23;;;;;;;7.37;2.97;;;14.90;99.90;;;;;;4936873;29;20502;-79
2022/09/14 00:26:51;;;;;;;6.23;2.87;;;14.90;99.90;;;;;;4936732;29;20824;-79
2022/09/14 00:29:20;;;;;;;9.43;3.23;;;14.90;99.90;;;;;;4936437;29;20506;-79
2022/09/14 00:31:48;;;;;;;8.30;2.40;;;14.90;99.90;;;;;;4936167;29;20536;-79
2022/09/14 00:34:17;;;;;;;5.10;3.33;;;14.90;99.90;;;;;;4937502;29;20448;-79
2022/09/14 00:36:47;;;;;;;5.83;3.40;;;14.90;99.90;;;;;;4935757;29;20937;-79
2022/09/14 00:39:18;;;;;;;5.90;3.37;;;14.80;99.90;;;;;;4936910;29;20421;-79
2022/09/14 00:41:48;;;;;;;6.40;3.53;;;14.80;99.90;;;;;;4937264;29;20953;-79
2022/09/14 00:44:54;;;;;;;5.77;3.23;;;14.80;99.90;;;;;;4936716;29;20871;-79
2022/09/14 00:47:23;;;;;;;4.33;3.00;;;14.80;99.90;;;;;;4936006;29;20977;-79
2022/09/14 00:49:51;;;;;;;6.07;3.60;;;14.70;99.90;;;;;;4935711;29;20475;-79
2022/09/14 00:52:22;;;;;;;5.63;3.07;;;14.70;99.90;;;;;;4938890;29;20442;-79
2022/09/14 00:54:54;;;;;;;9.13;3.10;;;14.70;99.90;;;;;;4936294;29;20450;-79
2022/09/14 00:57:24;;;;;;;5.10;3.13;;;14.60;99.90;;;;;;4936103;29;20451;-79
2022/09/14 00:59:53;;;;;;;6.97;4.00;;;14.60;99.90;;;;;;4936060;29;20430;-79
2022/09/14 01:02:23;;;;;;;6.70;3.57;;;14.60;99.90;;;;;;4937930;29;20518;-79
2022/09/14 01:04:52;;;;;;;7.10;3.43;;;14.60;99.90;;;;;;4937916;29;20979;-79
2022/09/14 01:07:38;;;;;;;6.83;3.70;;;14.60;99.90;;;;;;4936087;29;20433;-79
2022/09/14 01:10:17;;;;;;;5.70;3.27;;;14.60;99.90;;;;;;4935827;29;20511;-79
2022/09/14 01:12:58;;;;;;;6.13;3.70;;;14.50;99.90;;;;;;4937237;29;20801;-79
2022/09/14 01:15:32;;;;;;;5.17;3.30;;;14.50;99.90;;;;;;4937173;29;20419;-79
2022/09/14 01:18:07;;;;;;;4.83;3.33;;;14.50;99.90;;;;;;4935890;29;20446;-79
2022/09/14 01:20:38;;;;;;;4.87;3.50;;;14.50;99.90;;;;;;4935612;29;20479;-78
2022/09/14 01:23:13;;;;;;;6.40;3.57;;;14.50;99.90;;;;;;4936295;29;20451;-79
2022/09/14 01:26:15;;;;;;;9.60;4.03;;;14.50;99.90;;;;;;4935913;29;20859;-79
2022/09/14 01:28:49;;;;;;;4.80;3.57;;;14.40;99.90;;;;;;4938841;29;20444;-79
2022/09/14 01:31:25;;;;;;;5.23;3.90;;;14.40;99.90;;;;;;4939089;29;20478;-78
2022/09/14 01:34:01;;;;;;;4.47;3.53;;;14.40;99.90;;;;;;4939525;29;20447;-79
2022/09/14 01:36:34;;;;;;;7.87;3.80;;;14.30;99.90;;;;;;4939262;29;20451;-79
2022/09/14 01:39:03;;;;;;;5.43;3.97;;;14.30;99.90;;;;;;4939571;28;20534;-79
2022/09/14 01:41:32;;;;;;;4.70;3.77;;;14.30;99.90;;;;;;4940747;29;20869;-79
2022/09/14 01:44:06;;;;;;;6.80;3.80;;;14.30;99.90;;;;;;4941047;29;20447;-79
2022/09/14 01:46:39;;;;;;;6.43;4.40;;;14.30;99.90;;;;;;4939080;29;20531;-79
2022/09/14 01:49:11;;;;;;;6.73;4.40;;;14.30;99.90;;;;;;4939028;29;20490;-79
2022/09/14 01:51:44;;;;;;;6.30;3.80;;;14.30;99.90;;;;;;4940710;29;20462;-79
2022/09/14 01:54:16;;;;;;;5.07;4.13;;;14.20;99.90;;;;;;4939078;29;20462;-79
2022/09/14 01:56:51;;;;;;;7.73;3.90;;;14.20;99.90;;;;;;4939373;29;20447;-79
2022/09/14 01:59:24;;;;;;;7.37;4.37;;;14.20;99.90;;;;;;4939990;29;20446;-79
2022/09/14 02:01:56;;;;;;;5.43;4.03;;;14.20;99.90;;;;;;4939754;29;20469;-79
2022/09/14 02:04:32;;;;;;;5.93;4.30;;;14.20;99.90;;;;;;4940416;29;20427;-79
2022/09/14 02:07:00;;;;;;;7.53;4.10;;;14.20;99.90;;;;;;4939178;29;20451;-79
2022/09/14 02:09:29;;;;;;;9.13;5.17;;;14.20;99.90;;;;;;4939259;29;20482;-79
2022/09/14 02:11:59;;;;;;;5.70;4.13;;;14.20;99.90;;;;;;4938852;29;20561;-79
2022/09/14 02:14:29;;;;;;;6.67;4.23;;;14.10;99.90;;;;;;4938846;29;20811;-79
2022/09/14 02:16:58;;;;;;;8.70;4.60;;;14.10;99.90;;;;;;4939971;29;20487;-78
2022/09/14 02:19:30;;;;;;;4.80;3.97;;;14.10;99.90;;;;;;4939631;29;20495;-79
2022/09/14 02:21:59;;;;;;;5.70;4.50;;;14.10;99.90;;;;;;4938289;29;20479;-79
2022/09/14 02:24:28;;;;;;;13.17;5.20;;;14.10;99.90;;;;;;4938582;29;20498;-79
2022/09/14 02:26:58;;;;;;;6.73;4.67;;;14.10;99.90;;;;;;4938089;29;20511;-79
2022/09/14 02:29:26;;;;;;;6.73;5.03;;;14.10;99.90;;;;;;4938013;29;20474;-79
2022/09/14 02:32:05;;;;;;;6.00;5.00;;;14.10;99.90;;;;;;4937908;29;21017;-78
2022/09/14 02:34:43;;;;;;;4.90;4.40;;;14.00;99.90;;;;;;4938140;29;20447;-79
2022/09/14 02:37:17;;;;;;;5.93;4.50;;;14.00;99.90;;;;;;4938158;29;20501;-79
2022/09/14 02:39:56;;;;;;;6.07;5.40;;;14.00;99.90;;;;;;4936886;29;20462;-79
2022/09/14 02:42:35;;;;;;;6.77;4.93;;;14.00;99.90;;;;;;4938606;29;20533;-79
2022/09/14 02:45:15;;;;;;;5.70;4.67;;;14.00;99.90;;;;;;4938202;29;20471;-79
2022/09/14 02:47:55;;;;;;;5.20;4.70;;;14.00;99.90;;;;;;4938403;29;20470;-79
2022/09/14 02:50:29;;;;;;;5.20;4.53;;;14.00;99.90;;;;;;4939274;28;20470;-79
2022/09/14 02:53:04;;;;;;;5.67;4.30;;;13.90;99.90;;;;;;4937988;28;20474;-79
2022/09/14 02:55:37;;;;;;;5.97;5.20;;;13.90;99.90;;;;;;4937862;29;20458;-79
2022/09/14 02:58:08;;;;;;;9.43;5.30;;;13.90;99.90;;;;;;4939249;28;20912;-79
2022/09/14 03:00:39;;;;;;;7.93;4.97;;;13.90;99.90;;;;;;4938946;28;20975;-78
2022/09/14 03:03:10;;;;;;;7.40;5.20;;;13.90;99.90;;;;;;4945798;29;20439;-78
2022/09/14 03:05:39;;;;;;;7.83;4.80;;;13.90;99.90;;;;;;4942040;29;20428;-79
2022/09/14 03:08:09;;;;;;;7.73;5.57;;;13.80;99.90;;;;;;4940065;28;20455;-79
2022/09/14 03:10:37;;;;;;;6.93;5.47;;;13.80;99.90;;;;;;4939406;29;20538;-78
2022/09/14 03:13:05;;;;;;;7.83;5.10;;;13.80;99.90;;;;;;4939382;29;20459;-79
2022/09/14 03:15:33;;;;;;;7.93;5.00;;;13.80;99.90;;;;;;4940605;29;20860;-79
2022/09/14 03:18:01;;;;;;;7.13;4.90;;;13.80;99.90;;;;;;4939413;29;20503;-79
2022/09/14 03:20:33;;;;;;;9.40;5.57;;;13.80;99.90;;;;;;4938847;29;21025;-79
2022/09/14 03:23:02;;;;;;;8.43;5.90;;;13.80;99.90;;;;;;4938677;29;20451;-79
2022/09/14 03:25:31;;;;;;;6.63;5.27;;;13.80;99.90;;;;;;4939310;29;20451;-79
2022/09/14 03:28:00;;;;;;;8.13;5.93;;;13.80;99.90;;;;;;4939593;29;20444;-78
2022/09/14 03:30:28;;;;;;;9.23;5.70;;;13.80;99.90;;;;;;4937547;29;20479;-79
2022/09/14 03:32:57;;;;;;;9.00;5.90;;;13.80;99.90;;;;;;4937884;29;20426;-79
2022/09/14 03:35:27;;;;;;;7.60;5.50;;;13.80;99.90;;;;;;4937752;28;20559;-79
2022/09/14 03:37:57;;;;;;;6.30;5.00;;;13.80;99.90;;;;;;4938063;29;20454;-79
2022/09/14 03:40:25;;;;;;;8.10;6.10;;;13.80;99.90;;;;;;4939263;29;20440;-79
2022/09/14 03:42:53;;;;;;;10.40;5.60;;;13.80;99.90;;;;;;4937794;29;21018;-79
2022/09/14 03:45:21;;;;;;;5.80;5.20;;;13.70;99.90;;;;;;4938838;29;20447;-79
2022/09/14 03:47:50;;;;;;;8.53;5.07;;;13.70;99.90;;;;;;4937307;29;20458;-79
2022/09/14 03:50:19;;;;;;;5.60;5.10;;;13.70;99.90;;;;;;4937203;29;20471;-79
2022/09/14 03:52:47;;;;;;;6.57;5.30;;;13.70;99.90;;;;;;4938612;28;20441;-79
2022/09/14 03:55:18;;;;;;;7.87;6.00;;;13.70;99.90;;;;;;4937222;29;20466;-78
2022/09/14 03:57:46;;;;;;;10.30;7.23;;;13.70;99.90;;;;;;4938371;28;20409;-79
2022/09/14 04:00:14;;;;;;;7.53;6.30;;;13.70;99.90;;;;;;4938591;28;20491;-78
2022/09/14 04:02:44;;;;;;;7.90;6.10;;;13.70;99.90;;;;;;4936577;29;20451;-79
2022/09/14 04:05:12;;;;;;;5.90;5.30;;;13.70;99.90;;;;;;4938034;29;20455;-79
2022/09/14 04:07:40;;;;;;;6.47;4.67;;;13.70;99.90;;;;;;4938139;29;20457;-79
2022/09/14 04:10:09;;;;;;;7.17;5.27;;;13.70;99.90;;;;;;4936520;29;20433;-79
2022/09/14 04:12:39;;;;;;;6.00;4.90;;;13.70;99.90;;;;;;4936439;29;20502;-79
2022/09/14 04:15:08;;;;;;;6.03;5.00;;;13.70;99.90;;;;;;4937935;29;20456;-79
2022/09/14 04:17:36;;;;;;;6.13;4.77;;;13.70;99.90;;;;;;4936453;29;20454;-79
2022/09/14 04:20:05;;;;;;;7.30;4.90;;;13.60;99.90;;;;;;4937430;29;20511;-79
2022/09/14 04:22:34;;;;;;;7.20;4.83;;;13.60;99.90;;;;;;4937729;29;20462;-78
2022/09/14 04:25:02;;;;;;;6.30;5.43;;;13.60;99.90;;;;;;4936441;29;20474;-79
2022/09/14 04:27:30;;;;;;;7.23;5.10;;;13.60;99.90;;;;;;4937540;29;20506;-79
2022/09/14 04:30:00;;;;;;;5.63;4.37;;;13.60;99.90;;;;;;4936617;28;20491;-79
2022/09/14 04:32:29;;;;;;;7.37;5.23;;;13.60;99.90;;;;;;4936391;29;20494;-79
2022/09/14 04:35:01;;;;;;;7.17;5.50;;;13.60;99.90;;;;;;4936479;29;20479;-78
2022/09/14 04:37:31;;;;;;;5.83;5.23;;;13.60;99.90;;;;;;4937357;29;20971;-79
2022/09/14 04:40:00;;;;;;;6.47;5.07;;;13.50;99.90;;;;;;4936218;28;20935;-79
2022/09/14 04:42:29;;;;;;;12.87;5.73;;;13.50;99.90;;;;;;4937061;28;20507;-79
2022/09/14 04:44:58;;;;;;;8.30;5.43;;;13.50;99.90;;;;;;4937489;29;20448;-79
2022/09/14 04:47:28;;;;;;;5.97;4.40;;;13.50;99.90;;;;;;4937172;29;20490;-79
2022/09/14 04:49:56;;;;;;;6.50;4.87;;;13.50;99.90;;;;;;4936940;29;20966;-80
2022/09/14 04:52:25;;;;;;;9.30;5.23;;;13.50;99.90;;;;;;4936596;28;21050;-79
2022/09/14 04:54:53;;;;;;;8.03;5.83;;;13.50;99.90;;;;;;4937262;29;20459;-79
2022/09/14 04:57:21;;;;;;;6.10;4.67;;;13.50;99.90;;;;;;4936663;29;20491;-79
2022/09/14 04:59:49;;;;;;;7.13;5.47;;;13.50;99.90;;;;;;4936579;28;20443;-79
2022/09/14 05:02:17;;;;;;;7.50;4.47;;;13.50;99.90;;;;;;4939000;29;20502;-79
2022/09/14 05:04:47;;;;;;;8.00;5.10;;;13.50;99.90;;;;;;4940951;29;21006;-79
2022/09/14 05:07:15;;;;;;;7.37;5.03;;;13.50;99.90;;;;;;4940672;29;20460;-79
2022/09/14 05:09:44;;;;;;;7.13;4.93;;;13.50;99.90;;;;;;4940491;29;20815;-79
2022/09/14 05:12:12;;;;;;;6.20;5.13;;;13.50;99.90;;;;;;4940433;29;20479;-79
2022/09/14 05:14:40;;;;;;;8.00;5.00;;;13.50;99.90;;;;;;4940139;29;20944;-79
2022/09/14 05:17:09;;;;;;;5.70;5.13;;;13.60;99.90;;;;;;4940193;28;20558;-79
2022/09/14 05:19:38;;;;;;;6.50;5.83;;;13.60;99.90;;;;;;4942087;29;20865;-79
2022/09/14 05:22:07;;;;;;;9.40;5.90;;;13.60;99.90;;;;;;4941134;29;20550;-79
2022/09/14 05:24:35;;;;;;;8.20;6.10;;;13.60;99.90;;;;;;4940072;29;20444;-79
2022/09/14 05:27:04;;;;;;;6.27;5.67;;;13.60;99.90;;;;;;4939993;29;20487;-79
2022/09/14 05:29:32;;;;;;;6.37;5.47;;;13.60;99.90;;;;;;4939311;29;20447;-79
2022/09/14 05:32:00;;;;;;;6.90;6.10;;;13.60;99.90;;;;;;4939102;29;20479;-79
2022/09/14 05:34:28;;;;;;;6.70;5.73;;;13.60;99.90;;;;;;4941043;29;20435;-79
2022/09/14 05:36:56;;;;;;;6.87;5.20;;;13.60;99.90;;;;;;4939514;29;20462;-79
2022/09/14 05:39:26;;;;;;;9.33;5.50;;;13.60;99.90;;;;;;4939381;29;20809;-79
2022/09/14 05:41:54;;;;;;;6.67;5.90;;;13.60;99.90;;;;;;4939449;29;20849;-79
2022/09/14 05:44:22;;;;;;;9.20;6.33;;;13.60;99.90;;;;;;4939438;29;20462;-79
2022/09/14 05:46:50;;;;;;;6.27;5.07;;;13.60;99.90;;;;;;4939516;29;20504;-78
2022/09/14 05:49:24;;;;;;;7.63;6.57;;;13.70;99.90;;;;;;4939086;29;20447;-79
2022/09/14 05:51:52;;;;;;;7.10;5.57;;;13.70;99.90;;;;;;4939425;29;21025;-79
2022/09/14 05:54:20;;;;;;;6.50;5.20;;;13.70;99.90;;;;;;4940676;29;20443;-79
2022/09/14 05:56:49;;;;;;;6.90;6.20;;;13.70;99.90;;;;;;4939182;29;20506;-79
2022/09/14 05:59:20;;;;;;;7.87;6.07;;;13.80;99.90;;;;;;4939880;28;20966;-79
2022/09/14 06:01:48;;;;;;;7.40;5.40;;;13.80;99.90;;;;;;4939600;29;21025;-78
2022/09/14 06:04:17;;;;;;;13.37;5.80;;;13.80;99.90;;;;;;4944784;28;20486;-78
2022/09/14 06:06:45;;;;;;;6.10;5.50;;;13.80;99.90;;;;;;4942767;29;20553;-79
2022/09/14 06:09:33;;;;;;;7.43;5.63;;;13.90;99.90;;;;;;4943216;29;20453;-79
2022/09/14 06:12:03;;;;;;;7.30;6.40;;;13.90;99.90;;;;;;4941383;29;20487;-79
2022/09/14 06:14:31;;;;;;;8.33;6.00;;;13.90;99.90;;;;;;4941647;29;20459;-79
2022/09/14 06:16:59;;;;;;;7.57;5.23;;;14.00;99.90;;;;;;4940669;29;20455;-79
2022/09/14 06:19:27;;;;;;;7.97;4.90;;;14.00;99.90;;;;;;4940486;28;20456;-79
2022/09/14 06:21:55;;;;;;;6.17;5.40;;;14.00;99.90;;;;;;4940449;29;20470;-79
2022/09/14 06:24:23;;;;;;;8.67;5.20;;;14.00;99.90;;;;;;4940049;29;20455;-79
2022/09/14 06:26:51;;;;;;;9.50;6.83;;;14.10;99.90;;;;;;4940800;29;20446;-79
2022/09/14 06:29:21;;;;;;;8.50;5.53;;;14.10;99.90;;;;;;4939559;29;20475;-79
2022/09/14 06:31:49;;;;;;;9.93;6.80;;;14.10;99.90;;;;;;4939051;29;20549;-79
2022/09/14 06:34:18;;;;;;;7.27;4.60;;;14.20;99.90;;;;;;4939392;29;20443;-79
2022/09/14 06:36:47;;;;;;;7.97;5.70;;;14.20;99.90;;;;;;4938855;29;20459;-79
2022/09/14 06:39:15;;;;;;;6.40;5.30;;;14.30;99.90;;;;;;4938628;29;20447;-79
2022/09/14 06:41:44;;;;;;;8.03;5.73;;;14.30;99.90;;;;;;4939057;29;20464;-79
2022/09/14 06:44:20;;;;;;;6.43;4.93;;;14.40;99.90;;;;;;4939055;29;20449;-79
2022/09/14 06:46:48;;;;;;;7.33;5.47;;;14.40;99.90;;;;;;4939078;28;20466;-79
2022/09/14 06:49:19;;;;;;;5.97;5.20;;;14.50;99.90;;;;;;4938360;29;21034;-79
2022/09/14 06:51:47;;;;;;;8.80;5.57;;;14.60;99.90;;;;;;4938399;28;20467;-79
2022/09/14 06:54:17;;;;;;;7.80;6.07;;;14.60;99.90;;;;;;4938743;29;20506;-79
2022/09/14 06:56:46;;;;;;;7.33;5.07;;;14.60;99.90;;;;;;4938769;29;20502;-79
2022/09/14 06:59:16;;;;;;;8.90;4.97;;;14.70;99.90;;;;;;4938882;29;20439;-79
2022/09/14 07:01:48;;;;;;;7.70;5.43;;;14.70;99.90;;;;;;4938557;29;20559;-79
2022/09/14 07:04:16;;;;;;;7.70;4.90;;;14.80;99.90;;;;;;4938543;29;20473;-79
2022/09/14 07:06:46;;;;;;;8.57;5.40;;;14.80;99.90;;;;;;4938394;28;20909;-79
2022/09/14 07:09:15;;;;;;;10.93;5.43;;;14.90;99.90;;;;;;4938761;29;20459;-79
2022/09/14 07:11:44;;;;;;;6.60;5.00;;;14.90;99.90;;;;;;4938422;29;20471;-79
2022/09/14 07:14:12;;;;;;;7.73;4.70;;;14.90;99.90;;;;;;4938055;29;20821;-79
2022/09/14 07:16:41;;;;;;;5.70;4.63;;;15.00;99.90;;;;;;4938335;29;20939;-80
2022/09/14 07:19:13;;;;;;;6.50;5.23;;;15.00;99.90;;;;;;4938388;28;20459;-79
2022/09/14 07:21:42;;;;;;;6.73;4.13;;;15.10;99.90;;;;;;4938600;29;20491;-79
2022/09/14 07:24:13;;;;;;;8.57;4.90;;;15.20;99.90;;;;;;4938416;29;20982;-79
2022/09/14 07:26:42;;;;;;;10.77;5.10;;;15.20;99.90;;;;;;4937375;29;20921;-79
2022/09/14 07:29:13;;;;;;;8.20;5.30;;;15.30;99.90;;;;;;4938410;29;20443;-78
2022/09/14 07:31:43;;;;;;;4.90;4.40;;;15.30;99.90;;;;;;4937691;29;20913;-79
2022/09/14 07:34:12;;;;;;;6.27;4.90;;;15.40;99.90;;;;;;4937660;29;20819;-79
2022/09/14 07:36:42;;;;;;;7.17;3.70;;;15.50;99.90;;;;;;4939541;28;20862;-79
2022/09/14 07:39:12;;;;;;;6.63;4.00;;;15.60;99.90;;;;;;4939284;29;20542;-80
2022/09/14 07:41:42;;;;;;;7.00;3.70;;;15.70;99.90;;;;;;4937362;29;20446;-79
2022/09/14 07:44:13;;;;;;;6.57;4.17;;;15.80;99.90;;;;;;4937336;29;20989;-79
2022/09/14 07:46:44;;;;;;;5.37;3.33;;;15.80;99.90;;;;;;4938311;29;20459;-79
2022/09/14 07:49:14;;;;;;;7.90;3.90;;;15.90;99.90;;;;;;4936933;29;20953;-79
2022/09/14 07:51:43;;;;;;;5.00;3.30;;;16.00;99.90;;;;;;4937393;29;20999;-79
2022/09/14 07:54:15;;;;;;;5.10;3.50;;;16.00;99.90;;;;;;4937523;29;20478;-78
2022/09/14 07:56:44;;;;;;;5.20;3.63;;;16.00;99.90;;;;;;4937100;29;20414;-79
2022/09/14 07:59:13;;;;;;;9.20;3.63;;;16.00;99.90;;;;;;4938688;29;20432;-79
2022/09/14 08:02:01;;;;;;;6.20;3.47;;;16.10;99.90;;;;;;4937094;29;20500;-79
2022/09/14 08:04:31;;;;;;;5.93;3.47;;;16.10;99.90;;;;;;4938924;29;20965;-79
2022/09/14 08:07:00;;;;;;;4.90;3.20;;;16.10;99.90;;;;;;4938967;29;20780;-79
2022/09/14 08:09:29;;;;;;;6.03;3.13;;;16.20;99.90;;;;;;4939129;29;20426;-79
2022/09/14 08:11:57;;;;;;;6.53;3.30;;;16.20;99.90;;;;;;4938638;29;20445;-79
2022/09/14 08:14:26;;;;;;;4.63;2.67;;;16.20;99.90;;;;;;4938884;29;20478;-79
2022/09/14 08:16:54;;;;;;;10.77;3.10;;;16.30;99.90;;;;;;4939004;29;20448;-79
2022/09/14 08:19:22;;;;;;;5.77;2.90;;;16.30;99.90;;;;;;4939607;29;20937;-79
2022/09/14 08:21:52;;;;;;;6.20;2.77;;;16.40;99.90;;;;;;4941285;29;20522;-78
2022/09/14 08:24:21;;;;;;;10.40;3.33;;;16.40;99.90;;;;;;4939132;29;20788;-79
2022/09/14 08:26:50;;;;;;;5.50;2.57;;;16.50;99.90;;;;;;4939528;29;20484;-79
2022/09/14 08:29:19;;;;;;;6.07;2.90;;;16.60;99.90;;;;;;4939118;29;20534;-79
2022/09/14 08:31:50;;;;;;;9.87;2.93;;;16.70;99.90;;;;;;4941002;29;20433;-79
2022/09/14 08:34:19;;;;;;;6.47;3.43;;;16.80;99.90;;;;;;4941138;29;20514;-79
2022/09/14 08:36:48;;;;;;;5.27;2.27;;;16.90;99.90;;;;;;4940079;29;20483;-79
2022/09/14 08:39:18;;;;;;;5.30;2.60;;;17.00;99.90;;;;;;4940097;29;20531;-79
2022/09/14 08:41:51;;;;;;;4.67;2.10;;;17.10;99.90;;;;;;4941615;29;20467;-79
2022/09/14 08:44:28;;;;;;;8.67;3.30;;;17.10;99.90;;;;;;4941305;29;20399;-79
2022/09/14 08:47:01;;;;;;;4.63;1.83;;;17.20;99.90;;;;;;4939049;29;20443;-79
2022/09/14 08:49:47;;;;;;;5.87;1.97;;;17.30;99.90;;;;;;4938511;29;20469;-79
2022/09/14 08:52:24;;;;;;;4.83;1.73;;;17.40;99.90;;;;;;4940343;29;20503;-79
2022/09/14 08:54:56;;;;;;;6.37;2.60;;;17.50;99.90;;;;;;4941404;29;20462;-79
2022/09/14 08:57:31;;;;;;;6.13;3.90;;;17.70;99.90;;;;;;4939471;29;20440;-79
2022/09/14 09:00:07;;;;;;;7.07;2.30;;;17.80;99.90;;;;;;4938169;29;20443;-79
2022/09/14 09:03:12;;;;;;;5.50;1.90;;;17.90;99.90;;;;;;4937745;29;20499;-78
2022/09/14 09:05:47;;;;;;;5.50;1.63;;;18.00;99.90;;;;;;4933185;29;20462;-79
2022/09/14 09:08:21;;;;;;;5.37;1.70;;;18.10;99.90;;;;;;4943956;29;20450;-78
2022/09/14 09:10:54;;;;;;;4.70;1.63;;;18.20;99.90;;;;;;4941652;29;20459;-79
2022/09/14 09:13:26;;;;;;;4.27;1.60;;;18.20;99.90;;;;;;4941183;29;20584;-80
2022/09/14 09:15:58;;;;;;;7.10;1.50;;;18.20;99.90;;;;;;4941855;29;20902;-79
2022/09/14 09:18:36;;;;;;;5.40;1.60;;;18.30;99.90;;;;;;4941623;29;20482;-79
2022/09/14 09:21:11;;;;;;;4.23;1.67;;;18.40;99.90;;;;;;4938979;29;20463;-79
2022/09/14 09:23:41;;;;;;;5.83;1.50;;;18.50;99.90;;;;;;4938714;29;20475;-79
2022/09/14 09:26:18;;;;;;;5.90;1.30;;;18.50;99.90;;;;;;4938545;29;20454;-79
2022/09/14 09:28:49;;;;;;;6.10;2.07;;;18.60;99.90;;;;;;4939023;29;20439;-79
2022/09/14 09:31:19;;;;;;;5.30;1.43;;;18.70;99.90;;;;;;4938513;29;20483;-79
2022/09/14 09:34:11;;;;;;;5.17;1.90;;;18.80;99.90;;;;;;4937801;29;20475;-79
2022/09/14 09:36:43;;;;;;;9.10;1.93;;;18.90;99.90;;;;;;4936195;29;20450;-79
2022/09/14 09:39:12;;;;;;;6.60;1.73;;;19.00;99.90;;;;;;4936510;29;20467;-79
2022/09/14 09:41:45;;;;;;;4.93;1.30;;;19.10;99.90;;;;;;4936403;29;20475;-79
2022/09/14 09:44:13;;;;;;;7.07;1.83;;;19.30;99.90;;;;;;4936298;29;20451;-79
2022/09/14 09:46:48;;;;;;;4.37;1.40;;;19.30;99.90;;;;;;4936369;29;20443;-79
2022/09/14 09:49:22;;;;;;;5.90;1.93;;;19.40;99.90;;;;;;4939713;29;20482;-79
2022/09/14 09:51:52;;;;;;;5.50;1.80;;;19.40;99.90;;;;;;4941735;28;20466;-79
2022/09/14 09:54:25;;;;;;;5.00;1.70;;;19.40;99.90;;;;;;4942963;29;20478;-79
2022/09/14 09:56:57;;;;;;;3.90;1.50;;;19.40;99.90;;;;;;4942539;29;20439;-79
2022/09/14 09:59:31;;;;;;;4.20;1.30;;;19.40;99.90;;;;;;4942216;29;20530;-79
2022/09/14 10:02:21;;;;;;;4.30;1.53;;;19.50;99.90;;;;;;4941266;29;20467;-79
2022/09/14 10:05:01;;;;;;;3.93;1.47;;;19.50;99.90;;;;;;4942601;29;20451;-79
2022/09/14 10:07:31;;;;;;;4.87;1.43;;;19.50;99.90;;;;;;4942974;29;20967;-79
2022/09/14 10:10:01;;;;;;;4.77;1.20;;;19.50;99.90;;;;;;4941817;29;20466;-79
2022/09/14 10:12:31;;;;;;;7.90;1.63;;;19.50;99.90;;;;;;4941517;29;20471;-79
2022/09/14 10:15:16;;;;;;;3.57;1.50;;;19.50;99.90;;;;;;4941448;29;20890;-79
2022/09/14 10:17:55;;;;;;;4.03;1.20;;;19.50;99.90;;;;;;4943122;29;20440;-79
2022/09/14 10:20:25;;;;;;;5.77;1.40;;;19.50;99.90;;;;;;4941506;29;20544;-80
2022/09/14 10:22:54;;;;;;;8.80;1.87;;;19.60;99.90;;;;;;4943294;29;20450;-80
2022/09/14 10:25:25;;;;;;;4.53;1.50;;;19.60;99.90;;;;;;4942689;29;20477;-79
2022/09/14 10:28:00;;;;;;;4.63;1.30;;;19.60;99.90;;;;;;4944318;28;20443;-80
2022/09/14 10:30:37;;;;;;;3.50;1.43;;;19.60;99.90;;;;;;4942974;29;20475;-80
2022/09/14 10:33:17;;;;;;;5.27;1.60;;;19.70;99.90;;;;;;4942229;29;20953;-79
2022/09/14 10:35:51;;;;;;;3.53;1.40;;;19.70;99.90;;;;;;4944171;28;20459;-81
2022/09/14 10:38:30;;;;;;;3.43;1.30;;;19.70;99.90;;;;;;4941273;29;20455;-80
2022/09/14 10:41:17;;;;;;;4.60;1.70;;;19.80;99.90;;;;;;4940266;29;20483;-80
2022/09/14 10:44:07;;;;;;;4.77;1.20;;;19.80;99.90;;;;;;4940813;29;20974;-80
2022/09/14 10:46:42;;;;;;;2.97;1.17;;;19.80;99.90;;;;;;4942093;28;20798;-80
2022/09/14 10:49:25;;;;;;;4.90;1.50;;;19.80;99.90;;;;;;4941054;29;20462;-81
2022/09/14 10:52:03;;;;;;;3.90;1.20;;;19.90;99.90;;;;;;4941301;29;20467;-80
2022/09/14 10:55:08;;;;;;;3.77;1.10;;;19.90;99.90;;;;;;4941286;29;20475;-80
2022/09/14 10:57:47;;;;;;;4.23;1.23;;;19.90;99.90;;;;;;4886644;29;20556;-80
2022/09/14 11:00:20;;;;;;;6.47;1.30;;;19.90;99.90;;;;;;4933765;29;20462;-80
2022/09/14 11:03:15;;;;;;;3.03;1.07;;;19.90;99.90;;;;;;4939123;28;20466;-80
2022/09/14 11:05:49;;;;;;;5.00;1.50;;;20.00;99.90;;;;;;4938804;29;20481;-80
2022/09/14 11:08:24;;;;;;;3.53;1.27;;;20.00;99.90;;;;;;4939947;29;20447;-80
2022/09/14 11:11:16;;;;;;;4.03;1.77;;;20.00;99.90;;;;;;4939425;29;20846;-80
2022/09/14 11:13:57;;;;;;;5.30;1.70;;;20.00;99.90;;;;;;4940729;29;20451;-81
2022/09/14 11:16:52;;;;;;;3.40;1.43;;;20.10;99.90;;;;;;4942801;29;20861;-82
2022/09/14 11:19:30;;;;;;;2.87;1.70;;;20.10;99.90;;;;;;4944872;29;20448;-82
2022/09/14 11:22:06;;;;;;;6.47;1.90;;;20.10;99.90;;;;;;4945035;29;20485;-82
2022/09/14 11:24:40;;;;;;;3.67;1.43;;;20.10;99.90;;;;;;4942444;29;20871;-81
2022/09/14 11:27:14;;;;;;;4.73;1.80;;;20.20;99.90;;;;;;4942140;29;20872;-82
2022/09/14 11:29:48;;;;;;;5.37;1.60;;;20.20;99.90;;;;;;4941665;29;20451;-81
2022/09/14 11:32:22;;;;;;;5.10;2.00;;;20.20;99.90;;;;;;4941281;29;20471;-81
2022/09/14 11:34:55;;;;;;;7.57;1.93;;;20.20;99.90;;;;;;4940163;29;20478;-80
2022/09/14 11:37:31;;;;;;;5.27;1.90;;;20.20;99.90;;;;;;4938518;29;20462;-80
2022/09/14 11:40:08;;;;;;;6.67;1.70;;;20.20;99.90;;;;;;4938663;29;20444;-81
2022/09/14 11:42:43;;;;;;;6.27;1.70;;;20.30;99.90;;;;;;4938208;29;20546;-81
2022/09/14 11:45:18;;;;;;;6.63;1.30;;;20.30;99.90;;;;;;4940186;29;20494;-82
2022/09/14 11:47:57;;;;;;;7.67;2.43;;;20.40;99.90;;;;;;4938597;28;20518;-82
2022/09/14 11:50:28;;;;;;;3.33;1.83;;;20.40;99.90;;;;;;4938288;29;20903;-81
2022/09/14 11:53:03;;;;;;;4.67;2.03;;;20.40;99.90;;;;;;4937643;29;20551;-81
2022/09/14 11:55:32;;;;;;;4.23;1.93;;;20.30;99.90;;;;;;4937741;29;20569;-81
2022/09/14 11:58:03;;;;;;;4.43;1.33;;;20.30;99.90;;;;;;4937951;29;20443;-81
2022/09/14 12:00:59;;;;;;;3.97;1.87;;;20.40;99.90;;;;;;4939915;29;20443;-81
2022/09/14 12:03:52;;;;;;;6.60;1.43;;;20.30;99.90;;;;;;4940692;28;20440;-80
2022/09/14 12:06:47;;;;;;;4.67;1.50;;;20.30;99.90;;;;;;4931657;29;20447;-81
2022/09/14 12:09:51;;;;;;;5.13;1.70;;;20.30;99.90;;;;;;4940671;29;20454;-81
2022/09/14 12:12:34;;;;;;;5.20;1.90;;;20.30;99.90;;;;;;4940978;29;20467;-80
2022/09/14 12:15:19;;;;;;;6.00;1.60;;;20.30;99.90;;;;;;4940623;29;20463;-80
2022/09/14 12:17:47;;;;;;;4.67;1.90;;;20.30;99.90;;;;;;4944579;29;20451;-81
2022/09/14 12:20:33;;;;;;;4.87;1.50;;;20.30;99.90;;;;;;4941177;29;20811;-80
2022/09/14 12:23:27;;;;;;;3.63;1.50;;;20.30;99.90;;;;;;4939046;29;20444;-80
2022/09/14 12:26:13;;;;;;;4.57;1.70;;;20.40;99.90;;;;;;4926854;29;21015;-80
2022/09/14 12:28:47;;;;;;;3.00;1.53;;;20.40;99.90;;;;;;4939543;29;20440;-80
2022/09/14 12:31:37;;;;;;;3.93;1.43;;;20.50;99.90;;;;;;4939826;29;20904;-80
2022/09/14 12:34:24;;;;;;;7.37;1.70;;;20.50;99.90;;;;;;4939681;29;20452;-80
2022/09/14 12:37:31;;;;;;;5.03;1.43;;;20.50;99.90;;;;;;4939318;29;20451;-80
2022/09/14 12:40:35;;;;;;;9.30;3.30;;;20.50;99.90;;;;;;4940941;29;20450;-81
2022/09/14 12:43:48;;;;;;;3.47;1.33;;;20.40;99.90;;;;;;4939320;29;20762;-80
2022/09/14 12:46:37;;;;;;;3.73;2.00;;;20.50;99.90;;;;;;4940334;29;20451;-80
2022/09/14 12:49:29;;;;;;;4.43;1.33;;;20.50;99.80;;;;;;4939713;29;20554;-81
2022/09/14 12:52:03;;;;;;;4.20;1.10;;;20.50;99.70;;;;;;4939704;29;20485;-81
2022/09/14 12:54:42;;;;;;;3.67;1.33;;;20.50;99.80;;;;;;4938752;28;20428;-80
2022/09/14 12:57:29;;;;;;;3.40;1.90;;;20.50;99.70;;;;;;4936667;29;20439;-80
2022/09/14 13:00:06;;;;;;;5.60;1.50;;;20.50;99.60;;;;;;4936843;29;20874;-80
2022/09/14 13:03:12;;;;;;;5.30;1.30;;;20.50;99.50;;;;;;4936604;29;20824;-81
2022/09/14 13:05:44;;;;;;;4.13;1.17;;;20.50;99.30;;;;;;4919195;29;20880;-80
2022/09/14 13:08:16;;;;;;;6.03;2.87;;;20.50;99.40;;;;;;4941205;28;20471;-80
2022/09/14 13:10:48;;;;;;;6.50;1.50;;;20.50;99.40;;;;;;4940490;29;20463;-81
2022/09/14 13:13:22;;;;;;;6.50;1.53;;;20.60;99.30;;;;;;4939695;29;20475;-80
2022/09/14 13:15:54;;;;;;;7.30;1.80;;;20.60;99.30;;;;;;4939195;29;20468;-80
2022/09/14 13:18:30;;;;;;;4.50;1.40;;;20.70;99.30;;;;;;4939462;29;20435;-81